sensor_id;sensor_type;location;lat;lon;timestamp;temperature;humidity
55331;DHT22;58851;42.984;20.336;2022-10-20T00:01:40;282.10;6528.00
55331;DHT22;58851;42.984;20.336;2022-10-20T00:04:06;282.00;6528.00
55331;DHT22;58851;42.984;20.336;2022-10-20T00:06:32;282.00;6528.00
55331;DHT22;58851;42.984;20.336;2022-10-20T00:09:00;282.00;6528.00
55331;DHT22;58851;42.984;20.336;2022-10-20T00:11:27;281.90;6528.00
55331;DHT22;58851;42.984;20.336;2022-10-20T00:13:54;281.80;6528.00
55331;DHT22;58851;42.984;20.336;2022-10-20T00:16:21;281.80;6528.00
55331;DHT22;58851;42.984;20.336;2022-10-20T00:18:48;281.70;6528.00
55331;DHT22;58851;42.984;20.336;2022-10-20T00:21:17;281.70;6528.00
55331;DHT22;58851;42.984;20.336;2022-10-20T00:23:43;281.70;6528.00
55331;DHT22;58851;42.984;20.336;2022-10-20T00:26:17;281.70;6528.00
55331;DHT22;58851;42.984;20.336;2022-10-20T00:28:44;256.90;6502.40
55331;DHT22;58851;42.984;20.336;2022-10-20T00:31:10;256.80;6502.40
55331;DHT22;58851;42.984;20.336;2022-10-20T00:33:36;256.80;6502.40
55331;DHT22;58851;42.984;20.336;2022-10-20T00:36:05;256.90;6502.40
55331;DHT22;58851;42.984;20.336;2022-10-20T00:38:32;256.80;6502.40
55331;DHT22;58851;42.984;20.336;2022-10-20T00:40:59;256.70;6502.40
55331;DHT22;58851;42.984;20.336;2022-10-20T00:43:49;256.70;6502.40
55331;DHT22;58851;42.984;20.336;2022-10-20T00:46:20;256.70;6502.40
55331;DHT22;58851;42.984;20.336;2022-10-20T00:48:49;256.60;6502.40
55331;DHT22;58851;42.984;20.336;2022-10-20T00:51:46;256.50;6502.40
55331;DHT22;58851;42.984;20.336;2022-10-20T00:54:16;256.50;6502.40
55331;DHT22;58851;42.984;20.336;2022-10-20T00:56:43;256.30;6502.40
55331;DHT22;58851;42.984;20.336;2022-10-20T00:59:15;256.40;6502.40
55331;DHT22;58851;42.984;20.336;2022-10-20T01:01:42;256.30;6502.40
55331;DHT22;58851;42.984;20.336;2022-10-20T01:04:08;256.30;6502.40
55331;DHT22;58851;42.984;20.336;2022-10-20T01:06:35;256.20;6502.40
55331;DHT22;58851;42.984;20.336;2022-10-20T01:09:01;256.10;6502.40
55331;DHT22;58851;42.984;20.336;2022-10-20T01:11:44;256.10;6502.40
55331;DHT22;58851;42.984;20.336;2022-10-20T01:22:40;231.20;6502.40
55331;DHT22;58851;42.984;20.336;2022-10-20T01:30:45;230.90;6502.40
55331;DHT22;58851;42.984;20.336;2022-10-20T01:38:56;230.70;6502.40
55331;DHT22;58851;42.984;20.336;2022-10-20T01:41:52;230.60;6502.40
55331;DHT22;58851;42.984;20.336;2022-10-20T01:44:20;230.50;6502.40
55331;DHT22;58851;42.984;20.336;2022-10-20T01:46:48;230.60;6502.40
55331;DHT22;58851;42.984;20.336;2022-10-20T01:49:14;230.60;6502.40
55331;DHT22;58851;42.984;20.336;2022-10-20T01:51:40;230.60;6502.40
55331;DHT22;58851;42.984;20.336;2022-10-20T01:54:06;230.60;6502.40
55331;DHT22;58851;42.984;20.336;2022-10-20T01:56:44;230.60;6502.40
55331;DHT22;58851;42.984;20.336;2022-10-20T02:02:40;230.40;6502.40
55331;DHT22;58851;42.984;20.336;2022-10-20T02:07:42;230.40;6502.40
55331;DHT22;58851;42.984;20.336;2022-10-20T02:10:18;205.70;6502.40
55331;DHT22;58851;42.984;20.336;2022-10-20T02:12:51;205.70;6502.40
55331;DHT22;58851;42.984;20.336;2022-10-20T02:15:23;205.40;6502.40
55331;DHT22;58851;42.984;20.336;2022-10-20T02:17:53;205.30;6502.40
55331;DHT22;58851;42.984;20.336;2022-10-20T02:20:20;205.40;6502.40
55331;DHT22;58851;42.984;20.336;2022-10-20T02:22:46;205.40;6502.40
55331;DHT22;58851;42.984;20.336;2022-10-20T02:25:13;205.40;6502.40
55331;DHT22;58851;42.984;20.336;2022-10-20T02:27:41;205.40;6502.40
55331;DHT22;58851;42.984;20.336;2022-10-20T02:30:11;205.40;6502.40
55331;DHT22;58851;42.984;20.336;2022-10-20T02:32:40;205.40;6502.40
55331;DHT22;58851;42.984;20.336;2022-10-20T02:35:09;205.40;6502.40
55331;DHT22;58851;42.984;20.336;2022-10-20T02:37:36;205.40;6502.40
55331;DHT22;58851;42.984;20.336;2022-10-20T02:40:03;205.40;6502.40
55331;DHT22;58851;42.984;20.336;2022-10-20T02:42:29;205.40;6502.40
55331;DHT22;58851;42.984;20.336;2022-10-20T02:44:55;205.30;6502.40
55331;DHT22;58851;42.984;20.336;2022-10-20T02:47:21;205.30;6502.40
55331;DHT22;58851;42.984;20.336;2022-10-20T02:49:47;205.30;6502.40
55331;DHT22;58851;42.984;20.336;2022-10-20T02:52:13;205.20;6502.40
55331;DHT22;58851;42.984;20.336;2022-10-20T02:54:39;205.20;6502.40
55331;DHT22;58851;42.984;20.336;2022-10-20T02:57:05;205.10;6502.40
55331;DHT22;58851;42.984;20.336;2022-10-20T02:59:31;205.00;6502.40
55331;DHT22;58851;42.984;20.336;2022-10-20T03:01:57;204.90;6502.40
55331;DHT22;58851;42.984;20.336;2022-10-20T03:04:23;205.00;6502.40
55331;DHT22;58851;42.984;20.336;2022-10-20T03:06:49;205.00;6502.40
55331;DHT22;58851;42.984;20.336;2022-10-20T03:09:15;205.00;6502.40
55331;DHT22;58851;42.984;20.336;2022-10-20T03:11:41;204.90;6502.40
55331;DHT22;58851;42.984;20.336;2022-10-20T03:14:07;204.80;6502.40
55331;DHT22;58851;42.984;20.336;2022-10-20T03:16:33;204.80;6502.40
55331;DHT22;58851;42.984;20.336;2022-10-20T03:18:58;204.80;6502.40
55331;DHT22;58851;42.984;20.336;2022-10-20T03:21:24;204.80;6502.40
55331;DHT22;58851;42.984;20.336;2022-10-20T03:23:50;180.10;6502.40
55331;DHT22;58851;42.984;20.336;2022-10-20T03:26:16;180.10;6502.40
55331;DHT22;58851;42.984;20.336;2022-10-20T03:28:41;180.00;6502.40
55331;DHT22;58851;42.984;20.336;2022-10-20T03:31:08;180.10;6502.40
55331;DHT22;58851;42.984;20.336;2022-10-20T03:33:34;179.90;6502.40
55331;DHT22;58851;42.984;20.336;2022-10-20T03:36:00;179.70;6502.40
55331;DHT22;58851;42.984;20.336;2022-10-20T03:38:26;179.70;6502.40
55331;DHT22;58851;42.984;20.336;2022-10-20T03:40:52;179.70;6502.40
55331;DHT22;58851;42.984;20.336;2022-10-20T03:43:17;179.70;6502.40
55331;DHT22;58851;42.984;20.336;2022-10-20T03:45:44;179.70;6502.40
55331;DHT22;58851;42.984;20.336;2022-10-20T03:48:10;179.70;6502.40
55331;DHT22;58851;42.984;20.336;2022-10-20T03:50:41;179.60;6502.40
55331;DHT22;58851;42.984;20.336;2022-10-20T03:53:07;179.60;6502.40
55331;DHT22;58851;42.984;20.336;2022-10-20T03:55:36;179.50;6502.40
55331;DHT22;58851;42.984;20.336;2022-10-20T03:58:02;179.40;6502.40
55331;DHT22;58851;42.984;20.336;2022-10-20T04:00:28;179.40;6502.40
55331;DHT22;58851;42.984;20.336;2022-10-20T04:02:54;179.40;6502.40
55331;DHT22;58851;42.984;20.336;2022-10-20T04:05:20;179.40;6502.40
55331;DHT22;58851;42.984;20.336;2022-10-20T04:07:46;179.40;6502.40
55331;DHT22;58851;42.984;20.336;2022-10-20T04:10:14;179.40;6502.40
55331;DHT22;58851;42.984;20.336;2022-10-20T04:12:41;179.30;6502.40
55331;DHT22;58851;42.984;20.336;2022-10-20T04:15:07;179.30;6502.40
55331;DHT22;58851;42.984;20.336;2022-10-20T04:17:33;179.20;6502.40
55331;DHT22;58851;42.984;20.336;2022-10-20T04:20:02;179.20;6502.40
55331;DHT22;58851;42.984;20.336;2022-10-20T04:22:28;179.20;6502.40
55331;DHT22;58851;42.984;20.336;2022-10-20T04:24:54;154.40;6502.40
55331;DHT22;58851;42.984;20.336;2022-10-20T04:27:19;154.40;6502.40
55331;DHT22;58851;42.984;20.336;2022-10-20T04:29:46;154.40;6502.40
55331;DHT22;58851;42.984;20.336;2022-10-20T04:32:12;154.40;6502.40
55331;DHT22;58851;42.984;20.336;2022-10-20T04:34:37;154.40;6502.40
55331;DHT22;58851;42.984;20.336;2022-10-20T04:37:03;154.40;6502.40
55331;DHT22;58851;42.984;20.336;2022-10-20T04:39:29;154.30;6502.40
55331;DHT22;58851;42.984;20.336;2022-10-20T04:41:55;154.20;6502.40
55331;DHT22;58851;42.984;20.336;2022-10-20T04:44:21;154.30;6502.40
55331;DHT22;58851;42.984;20.336;2022-10-20T04:46:47;154.20;6502.40
55331;DHT22;58851;42.984;20.336;2022-10-20T04:49:12;154.10;6502.40
55331;DHT22;58851;42.984;20.336;2022-10-20T04:51:38;154.10;6502.40
55331;DHT22;58851;42.984;20.336;2022-10-20T04:54:04;154.00;6502.40
55331;DHT22;58851;42.984;20.336;2022-10-20T04:56:30;154.00;6502.40
55331;DHT22;58851;42.984;20.336;2022-10-20T04:58:57;154.00;6502.40
55331;DHT22;58851;42.984;20.336;2022-10-20T05:01:25;154.00;6502.40
55331;DHT22;58851;42.984;20.336;2022-10-20T05:03:52;153.80;6502.40
55331;DHT22;58851;42.984;20.336;2022-10-20T05:06:32;153.80;6502.40
55331;DHT22;58851;42.984;20.336;2022-10-20T05:09:00;153.70;6502.40
55331;DHT22;58851;42.984;20.336;2022-10-20T05:11:28;153.80;6502.40
55331;DHT22;58851;42.984;20.336;2022-10-20T05:13:55;153.80;6502.40
55331;DHT22;58851;42.984;20.336;2022-10-20T05:16:21;153.90;6502.40
55331;DHT22;58851;42.984;20.336;2022-10-20T05:18:47;153.70;6502.40
55331;DHT22;58851;42.984;20.336;2022-10-20T05:21:16;153.70;6502.40
55331;DHT22;58851;42.984;20.336;2022-10-20T05:23:42;153.70;6502.40
55331;DHT22;58851;42.984;20.336;2022-10-20T05:26:11;153.60;6502.40
55331;DHT22;58851;42.984;20.336;2022-10-20T05:28:39;128.90;6502.40
55331;DHT22;58851;42.984;20.336;2022-10-20T05:31:07;153.60;6502.40
55331;DHT22;58851;42.984;20.336;2022-10-20T05:33:34;153.60;6502.40
55331;DHT22;58851;42.984;20.336;2022-10-20T05:36:06;153.70;6502.40
55331;DHT22;58851;42.984;20.336;2022-10-20T05:38:32;153.80;6502.40
55331;DHT22;58851;42.984;20.336;2022-10-20T05:41:14;153.90;6502.40
55331;DHT22;58851;42.984;20.336;2022-10-20T05:43:40;154.00;6502.40
55331;DHT22;58851;42.984;20.336;2022-10-20T05:46:07;154.10;6502.40
55331;DHT22;58851;42.984;20.336;2022-10-20T05:48:33;154.10;6502.40
55331;DHT22;58851;42.984;20.336;2022-10-20T05:51:17;154.00;6502.40
55331;DHT22;58851;42.984;20.336;2022-10-20T05:53:44;154.10;6502.40
55331;DHT22;58851;42.984;20.336;2022-10-20T05:56:13;154.00;6502.40
55331;DHT22;58851;42.984;20.336;2022-10-20T05:58:40;154.10;6502.40
55331;DHT22;58851;42.984;20.336;2022-10-20T06:03:34;154.20;6502.40
55331;DHT22;58851;42.984;20.336;2022-10-20T06:06:01;154.20;6502.40
55331;DHT22;58851;42.984;20.336;2022-10-20T06:08:31;154.30;6502.40
55331;DHT22;58851;42.984;20.336;2022-10-20T06:11:04;154.40;6502.40
55331;DHT22;58851;42.984;20.336;2022-10-20T06:13:31;154.40;6502.40
55331;DHT22;58851;42.984;20.336;2022-10-20T06:16:02;154.50;6502.40
55331;DHT22;58851;42.984;20.336;2022-10-20T06:18:28;179.20;6502.40
55331;DHT22;58851;42.984;20.336;2022-10-20T06:21:04;179.20;6502.40
55331;DHT22;58851;42.984;20.336;2022-10-20T06:23:30;179.20;6502.40
55331;DHT22;58851;42.984;20.336;2022-10-20T06:26:05;179.30;6502.40
55331;DHT22;58851;42.984;20.336;2022-10-20T06:28:32;179.30;6502.40
55331;DHT22;58851;42.984;20.336;2022-10-20T06:30:59;179.40;6502.40
55331;DHT22;58851;42.984;20.336;2022-10-20T06:33:28;179.60;6502.40
55331;DHT22;58851;42.984;20.336;2022-10-20T06:35:58;179.70;6502.40
55331;DHT22;58851;42.984;20.336;2022-10-20T06:38:26;179.80;6502.40
55331;DHT22;58851;42.984;20.336;2022-10-20T06:40:51;179.90;6502.40
55331;DHT22;58851;42.984;20.336;2022-10-20T06:43:17;180.00;6502.40
55331;DHT22;58851;42.984;20.336;2022-10-20T06:45:43;180.10;6502.40
55331;DHT22;58851;42.984;20.336;2022-10-20T06:48:08;204.80;6502.40
55331;DHT22;58851;42.984;20.336;2022-10-20T06:50:34;204.90;6502.40
55331;DHT22;58851;42.984;20.336;2022-10-20T06:53:00;205.00;6502.40
55331;DHT22;58851;42.984;20.336;2022-10-20T06:55:26;205.10;6502.40
55331;DHT22;58851;42.984;20.336;2022-10-20T06:57:52;205.20;6502.40
55331;DHT22;58851;42.984;20.336;2022-10-20T07:00:18;205.20;6502.40
55331;DHT22;58851;42.984;20.336;2022-10-20T07:02:43;205.20;6502.40
55331;DHT22;58851;42.984;20.336;2022-10-20T07:05:09;205.40;6502.40
55331;DHT22;58851;42.984;20.336;2022-10-20T07:07:35;205.50;6502.40
55331;DHT22;58851;42.984;20.336;2022-10-20T07:10:01;205.60;6502.40
55331;DHT22;58851;42.984;20.336;2022-10-20T07:12:26;205.70;6502.40
55331;DHT22;58851;42.984;20.336;2022-10-20T07:14:52;230.40;6502.40
55331;DHT22;58851;42.984;20.336;2022-10-20T07:17:18;230.50;6502.40
55331;DHT22;58851;42.984;20.336;2022-10-20T07:19:44;230.40;6502.40
55331;DHT22;58851;42.984;20.336;2022-10-20T07:22:09;230.50;6502.40
55331;DHT22;58851;42.984;20.336;2022-10-20T07:24:35;230.70;6502.40
55331;DHT22;58851;42.984;20.336;2022-10-20T07:27:01;230.90;6502.40
55331;DHT22;58851;42.984;20.336;2022-10-20T07:29:27;231.10;6502.40
55331;DHT22;58851;42.984;20.336;2022-10-20T07:31:52;231.10;6502.40
55331;DHT22;58851;42.984;20.336;2022-10-20T07:34:18;231.10;6502.40
55331;DHT22;58851;42.984;20.336;2022-10-20T07:36:47;231.10;6502.40
55331;DHT22;58851;42.984;20.336;2022-10-20T07:39:14;256.00;6502.40
55331;DHT22;58851;42.984;20.336;2022-10-20T07:41:40;256.20;6502.40
55331;DHT22;58851;42.984;20.336;2022-10-20T07:44:10;256.50;6502.40
55331;DHT22;58851;42.984;20.336;2022-10-20T07:46:35;256.70;6502.40
55331;DHT22;58851;42.984;20.336;2022-10-20T07:49:01;256.90;6502.40
55331;DHT22;58851;42.984;20.336;2022-10-20T07:51:29;281.60;6528.00
55331;DHT22;58851;42.984;20.336;2022-10-20T07:54:00;281.70;6528.00
55331;DHT22;58851;42.984;20.336;2022-10-20T07:56:34;281.90;6528.00
55331;DHT22;58851;42.984;20.336;2022-10-20T07:59:00;282.00;6528.00
55331;DHT22;58851;42.984;20.336;2022-10-20T08:01:26;282.20;6528.00
55331;DHT22;58851;42.984;20.336;2022-10-20T08:03:52;282.40;6528.00
55331;DHT22;58851;42.984;20.336;2022-10-20T08:06:18;307.20;128.00
55331;DHT22;58851;42.984;20.336;2022-10-20T08:08:44;307.40;128.00
55331;DHT22;58851;42.984;20.336;2022-10-20T08:11:10;307.60;128.00
55331;DHT22;58851;42.984;20.336;2022-10-20T08:13:36;307.70;128.00
55331;DHT22;58851;42.984;20.336;2022-10-20T08:16:06;307.80;128.00
55331;DHT22;58851;42.984;20.336;2022-10-20T08:18:33;307.90;128.00
55331;DHT22;58851;42.984;20.336;2022-10-20T08:21:22;308.00;128.00
55331;DHT22;58851;42.984;20.336;2022-10-20T08:23:50;307.80;128.00
55331;DHT22;58851;42.984;20.336;2022-10-20T08:26:19;307.90;128.00
55331;DHT22;58851;42.984;20.336;2022-10-20T08:28:46;308.00;128.00
55331;DHT22;58851;42.984;20.336;2022-10-20T08:31:11;308.00;128.00
55331;DHT22;58851;42.984;20.336;2022-10-20T08:33:37;308.10;128.00
55331;DHT22;58851;42.984;20.336;2022-10-20T08:36:06;332.80;128.00
55331;DHT22;58851;42.984;20.336;2022-10-20T08:38:33;332.80;128.00
55331;DHT22;58851;42.984;20.336;2022-10-20T08:41:00;332.80;128.00
55331;DHT22;58851;42.984;20.336;2022-10-20T08:43:27;333.00;128.00
55331;DHT22;58851;42.984;20.336;2022-10-20T08:45:53;333.20;128.00
55331;DHT22;58851;42.984;20.336;2022-10-20T08:48:25;333.00;128.00
55331;DHT22;58851;42.984;20.336;2022-10-20T08:50:52;333.10;128.00
55331;DHT22;58851;42.984;20.336;2022-10-20T08:53:23;332.90;128.00
55331;DHT22;58851;42.984;20.336;2022-10-20T08:55:51;333.20;128.00
55331;DHT22;58851;42.984;20.336;2022-10-20T08:58:20;333.20;128.00
55331;DHT22;58851;42.984;20.336;2022-10-20T09:00:47;333.30;128.00
55331;DHT22;58851;42.984;20.336;2022-10-20T09:03:27;333.10;128.00
55331;DHT22;58851;42.984;20.336;2022-10-20T09:06:16;333.30;128.00
55331;DHT22;58851;42.984;20.336;2022-10-20T09:08:43;333.60;128.00
55331;DHT22;58851;42.984;20.336;2022-10-20T09:11:15;333.70;128.00
55331;DHT22;58851;42.984;20.336;2022-10-20T09:13:42;358.40;128.00
55331;DHT22;58851;42.984;20.336;2022-10-20T09:16:31;358.40;128.00
55331;DHT22;58851;42.984;20.336;2022-10-20T09:19:05;358.50;128.00
55331;DHT22;58851;42.984;20.336;2022-10-20T09:21:34;358.70;128.00
55331;DHT22;58851;42.984;20.336;2022-10-20T09:24:04;358.90;128.00
55331;DHT22;58851;42.984;20.336;2022-10-20T09:29:14;358.70;128.00
55331;DHT22;58851;42.984;20.336;2022-10-20T09:34:24;359.20;128.00
55331;DHT22;58851;42.984;20.336;2022-10-20T09:37:02;359.30;128.00
55331;DHT22;58851;42.984;20.336;2022-10-20T09:39:34;359.10;128.00
55331;DHT22;58851;42.984;20.336;2022-10-20T09:42:17;359.20;128.00
55331;DHT22;58851;42.984;20.336;2022-10-20T09:45:00;384.00;128.00
55331;DHT22;58851;42.984;20.336;2022-10-20T09:47:29;384.00;128.00
55331;DHT22;58851;42.984;20.336;2022-10-20T09:50:04;384.00;128.00
55331;DHT22;58851;42.984;20.336;2022-10-20T09:52:33;384.20;128.00
55331;DHT22;58851;42.984;20.336;2022-10-20T09:55:24;384.30;128.00
55331;DHT22;58851;42.984;20.336;2022-10-20T09:57:50;384.50;128.00
55331;DHT22;58851;42.984;20.336;2022-10-20T10:00:32;384.20;128.00
55331;DHT22;58851;42.984;20.336;2022-10-20T10:03:22;384.20;128.00
55331;DHT22;58851;42.984;20.336;2022-10-20T10:05:51;384.50;128.00
55331;DHT22;58851;42.984;20.336;2022-10-20T10:08:18;384.60;128.00
55331;DHT22;58851;42.984;20.336;2022-10-20T10:10:55;384.50;128.00
55331;DHT22;58851;42.984;20.336;2022-10-20T10:13:28;384.50;128.00
55331;DHT22;58851;42.984;20.336;2022-10-20T10:16:07;384.30;128.00
55331;DHT22;58851;42.984;20.336;2022-10-20T10:18:34;384.50;128.00
55331;DHT22;58851;42.984;20.336;2022-10-20T10:21:06;384.80;128.00
55331;DHT22;58851;42.984;20.336;2022-10-20T10:23:55;384.90;128.00
55331;DHT22;58851;42.984;20.336;2022-10-20T10:26:46;409.60;128.00
55331;DHT22;58851;42.984;20.336;2022-10-20T10:29:48;409.80;128.00
55331;DHT22;58851;42.984;20.336;2022-10-20T10:32:15;410.00;128.00
55331;DHT22;58851;42.984;20.336;2022-10-20T10:34:57;410.10;128.00
55331;DHT22;58851;42.984;20.336;2022-10-20T10:37:27;384.90;128.00
55331;DHT22;58851;42.984;20.336;2022-10-20T10:39:53;409.60;128.00
55331;DHT22;58851;42.984;20.336;2022-10-20T10:51:04;410.10;128.00
55331;DHT22;58851;42.984;20.336;2022-10-20T10:53:43;410.20;128.00
55331;DHT22;58851;42.984;20.336;2022-10-20T11:01:28;410.20;128.00
55331;DHT22;58851;42.984;20.336;2022-10-20T11:09:42;410.50;128.00
55331;DHT22;58851;42.984;20.336;2022-10-20T11:15:47;435.30;128.00
55331;DHT22;58851;42.984;20.336;2022-10-20T11:26:36;435.60;128.00
55331;DHT22;58851;42.984;20.336;2022-10-20T11:29:08;435.60;128.00
55331;DHT22;58851;42.984;20.336;2022-10-20T11:35:38;435.80;128.00
55331;DHT22;58851;42.984;20.336;2022-10-20T11:37:49;435.90;128.00
55331;DHT22;58851;42.984;20.336;2022-10-20T11:40:25;460.80;128.00
55331;DHT22;58851;42.984;20.336;2022-10-20T11:43:38;461.00;128.00
55331;DHT22;58851;42.984;20.336;2022-10-20T11:46:03;461.20;128.00
55331;DHT22;58851;42.984;20.336;2022-10-20T11:59:42;461.00;128.00
55331;DHT22;58851;42.984;20.336;2022-10-20T12:05:11;461.50;128.00
55331;DHT22;58851;42.984;20.336;2022-10-20T12:10:31;486.80;128.00
55331;DHT22;58851;42.984;20.336;2022-10-20T12:15:49;486.50;128.00
55331;DHT22;58851;42.984;20.336;2022-10-20T12:18:35;486.80;128.00
55331;DHT22;58851;42.984;20.336;2022-10-20T12:21:06;486.50;128.00
55331;DHT22;58851;42.984;20.336;2022-10-20T12:28:56;512.10;128.00
55331;DHT22;58851;42.984;20.336;2022-10-20T12:31:22;512.10;128.00
55331;DHT22;58851;42.984;20.336;2022-10-20T12:36:29;512.10;128.00
55331;DHT22;58851;42.984;20.336;2022-10-20T12:39:20;512.10;128.00
55331;DHT22;58851;42.984;20.336;2022-10-20T12:42:02;512.40;128.00
55331;DHT22;58851;42.984;20.336;2022-10-20T12:44:41;512.70;128.00
55331;DHT22;58851;42.984;20.336;2022-10-20T12:47:08;512.60;128.00
55331;DHT22;58851;42.984;20.336;2022-10-20T12:49:40;537.70;128.00
55331;DHT22;58851;42.984;20.336;2022-10-20T12:52:20;537.80;128.00
55331;DHT22;58851;42.984;20.336;2022-10-20T12:54:54;538.00;128.00
55331;DHT22;58851;42.984;20.336;2022-10-20T12:57:36;537.90;128.00
55331;DHT22;58851;42.984;20.336;2022-10-20T13:02:55;538.40;128.00
55331;DHT22;58851;42.984;20.336;2022-10-20T13:05:41;538.40;128.00
55331;DHT22;58851;42.984;20.336;2022-10-20T13:10:45;563.30;128.00
55331;DHT22;58851;42.984;20.336;2022-10-20T13:21:01;589.10;128.00
55331;DHT22;58851;42.984;20.336;2022-10-20T13:28:50;614.50;128.00
55331;DHT22;58851;42.984;20.336;2022-10-20T13:32:22;614.50;128.00
55331;DHT22;58851;42.984;20.336;2022-10-20T13:43:29;640.30;128.00
55331;DHT22;58851;42.984;20.336;2022-10-20T13:51:47;665.60;153.60
55331;DHT22;58851;42.984;20.336;2022-10-20T13:54:27;665.90;153.60
55331;DHT22;58851;42.984;20.336;2022-10-20T13:56:54;640.90;128.00
55331;DHT22;58851;42.984;20.336;2022-10-20T13:59:25;640.70;128.00
55331;DHT22;58851;42.984;20.336;2022-10-20T14:01:58;665.60;153.60
55331;DHT22;58851;42.984;20.336;2022-10-20T14:04:25;665.90;153.60
55331;DHT22;58851;42.984;20.336;2022-10-20T14:06:51;665.90;153.60
55331;DHT22;58851;42.984;20.336;2022-10-20T14:09:21;665.60;153.60
55331;DHT22;58851;42.984;20.336;2022-10-20T14:11:57;640.60;128.00
55331;DHT22;58851;42.984;20.336;2022-10-20T14:14:26;640.70;128.00
55331;DHT22;58851;42.984;20.336;2022-10-20T14:16:57;640.50;128.00
55331;DHT22;58851;42.984;20.336;2022-10-20T14:19:24;640.20;128.00
55331;DHT22;58851;42.984;20.336;2022-10-20T14:21:57;614.90;128.00
55331;DHT22;58851;42.984;20.336;2022-10-20T14:24:32;614.40;128.00
55331;DHT22;58851;42.984;20.336;2022-10-20T14:26:59;589.60;128.00
55331;DHT22;58851;42.984;20.336;2022-10-20T14:29:32;589.20;128.00
55331;DHT22;58851;42.984;20.336;2022-10-20T14:31:58;588.80;128.00
55331;DHT22;58851;42.984;20.336;2022-10-20T14:34:27;564.00;128.00
55331;DHT22;58851;42.984;20.336;2022-10-20T14:36:54;563.60;128.00
55331;DHT22;58851;42.984;20.336;2022-10-20T14:39:37;563.20;128.00
55331;DHT22;58851;42.984;20.336;2022-10-20T14:42:19;537.80;128.00
55331;DHT22;58851;42.984;20.336;2022-10-20T14:44:46;512.80;128.00
55331;DHT22;58851;42.984;20.336;2022-10-20T14:47:13;512.50;128.00
55331;DHT22;58851;42.984;20.336;2022-10-20T14:49:41;512.10;128.00
55331;DHT22;58851;42.984;20.336;2022-10-20T14:52:34;487.30;128.00
55331;DHT22;58851;42.984;20.336;2022-10-20T14:55:01;486.80;128.00
55331;DHT22;58851;42.984;20.336;2022-10-20T14:57:30;486.60;128.00
55331;DHT22;58851;42.984;20.336;2022-10-20T15:00:22;486.40;128.00
55331;DHT22;58851;42.984;20.336;2022-10-20T15:02:47;461.70;128.00
55331;DHT22;58851;42.984;20.336;2022-10-20T15:05:42;461.60;128.00
55331;DHT22;58851;42.984;20.336;2022-10-20T15:08:23;461.40;128.00
55331;DHT22;58851;42.984;20.336;2022-10-20T15:10:49;461.10;128.00
55331;DHT22;58851;42.984;20.336;2022-10-20T15:13:27;460.90;128.00
55331;DHT22;58851;42.984;20.336;2022-10-20T15:15:54;436.10;128.00
55331;DHT22;58851;42.984;20.336;2022-10-20T15:18:20;436.10;128.00
55331;DHT22;58851;42.984;20.336;2022-10-20T15:20:49;435.90;128.00
55331;DHT22;58851;42.984;20.336;2022-10-20T15:23:24;435.80;128.00
55331;DHT22;58851;42.984;20.336;2022-10-20T15:30:59;435.30;128.00
55331;DHT22;58851;42.984;20.336;2022-10-20T15:33:25;410.50;128.00
55331;DHT22;58851;42.984;20.336;2022-10-20T15:35:51;410.30;128.00
55331;DHT22;58851;42.984;20.336;2022-10-20T15:38:18;410.20;128.00
55331;DHT22;58851;42.984;20.336;2022-10-20T15:40:45;410.10;128.00
55331;DHT22;58851;42.984;20.336;2022-10-20T15:43:12;409.90;128.00
55331;DHT22;58851;42.984;20.336;2022-10-20T15:46:02;409.80;128.00
55331;DHT22;58851;42.984;20.336;2022-10-20T15:48:26;409.60;128.00
55331;DHT22;58851;42.984;20.336;2022-10-20T15:50:53;384.80;128.00
55331;DHT22;58851;42.984;20.336;2022-10-20T15:53:20;384.60;128.00
55331;DHT22;58851;42.984;20.336;2022-10-20T15:55:45;384.40;128.00
55331;DHT22;58851;42.984;20.336;2022-10-20T15:58:11;384.30;128.00
55331;DHT22;58851;42.984;20.336;2022-10-20T16:00:37;384.10;128.00
55331;DHT22;58851;42.984;20.336;2022-10-20T16:03:04;384.00;128.00
55331;DHT22;58851;42.984;20.336;2022-10-20T16:05:32;359.30;128.00
55331;DHT22;58851;42.984;20.336;2022-10-20T16:07:59;359.10;128.00
55331;DHT22;58851;42.984;20.336;2022-10-20T16:10:26;359.00;128.00
55331;DHT22;58851;42.984;20.336;2022-10-20T16:12:55;358.90;128.00
55331;DHT22;58851;42.984;20.336;2022-10-20T16:15:21;358.80;128.00
55331;DHT22;58851;42.984;20.336;2022-10-20T16:17:47;358.80;128.00
55331;DHT22;58851;42.984;20.336;2022-10-20T16:20:13;358.70;128.00
55331;DHT22;58851;42.984;20.336;2022-10-20T16:22:39;358.50;128.00
55331;DHT22;58851;42.984;20.336;2022-10-20T16:25:05;358.50;128.00
55331;DHT22;58851;42.984;20.336;2022-10-20T16:27:32;358.40;128.00
55331;DHT22;58851;42.984;20.336;2022-10-20T16:29:58;333.60;128.00
55331;DHT22;58851;42.984;20.336;2022-10-20T16:32:26;333.50;128.00
55331;DHT22;58851;42.984;20.336;2022-10-20T16:34:52;333.50;128.00
55331;DHT22;58851;42.984;20.336;2022-10-20T16:37:18;333.40;128.00
55331;DHT22;58851;42.984;20.336;2022-10-20T16:39:43;333.30;128.00
55331;DHT22;58851;42.984;20.336;2022-10-20T16:42:09;333.20;128.00
55331;DHT22;58851;42.984;20.336;2022-10-20T16:44:35;333.20;128.00
55331;DHT22;58851;42.984;20.336;2022-10-20T16:47:01;333.10;128.00
55331;DHT22;58851;42.984;20.336;2022-10-20T16:49:26;333.00;128.00
55331;DHT22;58851;42.984;20.336;2022-10-20T16:51:52;332.90;128.00
55331;DHT22;58851;42.984;20.336;2022-10-20T16:54:18;332.80;128.00
55331;DHT22;58851;42.984;20.336;2022-10-20T16:56:44;308.00;128.00
55331;DHT22;58851;42.984;20.336;2022-10-20T16:59:10;307.80;128.00
55331;DHT22;58851;42.984;20.336;2022-10-20T17:01:36;307.80;128.00
55331;DHT22;58851;42.984;20.336;2022-10-20T17:04:02;307.60;128.00
55331;DHT22;58851;42.984;20.336;2022-10-20T17:06:28;307.70;128.00
55331;DHT22;58851;42.984;20.336;2022-10-20T17:08:54;307.60;128.00
55331;DHT22;58851;42.984;20.336;2022-10-20T17:11:23;307.40;128.00